createdAt,value
2018-08-18T00:04:32.122Z,101605.22
2018-08-18T00:09:35.298Z,101603.36
2018-08-18T00:14:38.334Z,101611.28
2018-08-18T00:19:41.441Z,101610.66
2018-08-18T00:25:02.365Z,101612.55
2018-08-18T00:30:13.063Z,101612.91
2018-08-18T00:35:16.299Z,101619.34
2018-08-18T00:40:19.338Z,101619.27
2018-08-18T00:45:22.374Z,101610.72
2018-08-18T00:50:43.293Z,101612.61
2018-08-18T00:55:46.550Z,101607.70
2018-08-18T01:00:55.789Z,101622.48
2018-08-18T01:06:14.976Z,101623.73
2018-08-18T01:11:18.696Z,101622.81
2018-08-18T01:16:22.439Z,101621.80
2018-08-18T01:21:26.197Z,101626.97
2018-08-18T01:26:29.265Z,101634.66
2018-08-18T01:31:32.412Z,101635.55
2018-08-18T01:36:35.597Z,101638.64
2018-08-18T01:41:38.814Z,101642.02
2018-08-18T01:46:42.445Z,101648.70
2018-08-18T01:51:45.514Z,101649.80
2018-08-18T01:56:49.600Z,101652.11
2018-08-18T02:01:52.619Z,101644.30
2018-08-18T02:07:05.889Z,101642.70
2018-08-18T02:12:09.439Z,101647.22
2018-08-18T02:17:34.741Z,101650.98
2018-08-18T02:22:37.867Z,101642.39
2018-08-18T02:27:40.862Z,101640.13
2018-08-18T02:32:43.956Z,101639.48
2018-08-18T02:37:46.959Z,101636.90
2018-08-18T02:42:50.003Z,101638.53
2018-08-18T02:48:10.927Z,101636.31
2018-08-18T02:53:24.209Z,101638.01
2018-08-18T02:58:27.214Z,101635.12
2018-08-18T03:03:30.243Z,101635.70
2018-08-18T03:08:33.352Z,101636.30
2018-08-18T03:13:36.800Z,101639.03
2018-08-18T03:18:54.065Z,101636.21
2018-08-18T03:24:17.371Z,101635.26
2018-08-18T03:29:21.686Z,101634.14
2018-08-18T03:34:24.713Z,101640.80
2018-08-18T03:39:33.187Z,101650.27
2018-08-18T03:44:40.771Z,101655.23
2018-08-18T03:49:43.830Z,101653.94
2018-08-18T03:54:47.027Z,101658.06
2018-08-18T03:59:50.285Z,101656.87
2018-08-18T04:04:57.974Z,101655.17
2018-08-18T04:10:05.426Z,101654.66
2018-08-18T04:15:08.543Z,101660.36
2018-08-18T04:20:11.738Z,101661.03
2018-08-18T04:25:14.888Z,101674.39
2018-08-18T04:30:19.900Z,101664.50
2018-08-18T04:35:25.084Z,101671.36
2018-08-18T04:40:28.142Z,101679.38
2018-08-18T04:45:31.608Z,101683.75
2018-08-18T04:50:34.913Z,101684.58
2018-08-18T04:55:38.269Z,101676.42
2018-08-18T05:00:41.583Z,101679.41
2018-08-18T05:05:44.856Z,101683.13
2018-08-18T05:10:48.328Z,101688.57
2018-08-18T05:15:51.692Z,101695.05
2018-08-18T05:20:54.980Z,101691.56
2018-08-18T05:25:58.071Z,101690.13
2018-08-18T05:31:01.856Z,101692.82
2018-08-18T05:36:05.167Z,101691.88
2018-08-18T05:41:08.534Z,101692.08
2018-08-18T05:46:11.681Z,101691.02
2018-08-18T05:51:14.747Z,101680.42
2018-08-18T05:56:17.757Z,101684.84
2018-08-18T06:01:34.874Z,101692.12
2018-08-18T06:06:38.991Z,101691.55
2018-08-18T06:11:42.638Z,101690.59
2018-08-18T06:16:46.122Z,101701.50
2018-08-18T06:21:51.127Z,101703.70
2018-08-18T06:26:57.126Z,101706.14
2018-08-18T06:32:02.337Z,101704.34
2018-08-18T06:37:06.592Z,101704.76
2018-08-18T06:42:31.898Z,101712.98
2018-08-18T06:47:35.251Z,101712.77
2018-08-18T06:52:38.679Z,101717.80
2018-08-18T06:57:48.662Z,101697.98
2018-08-18T07:02:52.011Z,101716.76
2018-08-18T07:07:55.078Z,101718.98
2018-08-18T07:13:00.205Z,101714.13
2018-08-18T07:18:03.974Z,101709.47
2018-08-18T07:23:07.510Z,101709.05
2018-08-18T07:28:11.567Z,101715.13
2018-08-18T07:33:14.635Z,101721.20
2018-08-18T07:38:17.726Z,101725.20
2018-08-18T07:43:24.418Z,101722.64
2018-08-18T07:48:27.445Z,101722.42
2018-08-18T07:53:30.534Z,101727.69
2018-08-18T07:58:34.074Z,101720.08
2018-08-18T08:03:37.178Z,101724.91
2018-08-18T08:08:45.933Z,101725.68
2018-08-18T08:13:49.226Z,101733.58
2018-08-18T08:18:52.559Z,101727.23
2018-08-18T08:23:55.643Z,101722.34
2018-08-18T08:28:58.707Z,101730.09
2018-08-18T08:34:01.877Z,101730.52
2018-08-18T08:39:05.854Z,101715.86
2018-08-18T08:44:08.897Z,101728.24
2018-08-18T08:49:12.055Z,101728.80
2018-08-18T08:54:15.085Z,101732.79
2018-08-18T08:59:18.145Z,101725.09
2018-08-18T09:04:21.198Z,101732.41
2018-08-18T09:09:24.718Z,101730.45
2018-08-18T09:14:27.841Z,101725.09
2018-08-18T09:19:30.954Z,101727.28
2018-08-18T09:24:34.041Z,101729.36
2018-08-18T09:29:42.935Z,101720.45
2018-08-18T09:34:50.515Z,101715.00
2018-08-18T09:39:53.542Z,101714.36
2018-08-18T09:44:56.544Z,101716.21
2018-08-18T09:49:59.590Z,101713.41
2018-08-18T09:55:02.626Z,101712.29
2018-08-18T10:00:06.553Z,101717.27
2018-08-18T10:05:09.914Z,101708.61
2018-08-18T10:10:13.607Z,101708.60
2018-08-18T10:15:16.875Z,101711.02
2018-08-18T10:20:20.012Z,101714.22
2018-08-18T10:25:23.042Z,101706.45
2018-08-18T10:30:26.190Z,101701.86
2018-08-18T10:35:30.805Z,101702.32
2018-08-18T10:40:34.045Z,101695.13
2018-08-18T10:45:37.093Z,101690.38
2018-08-18T10:51:27.495Z,101691.44
2018-08-18T10:56:30.736Z,101687.59
2018-08-18T11:01:34.068Z,101686.17
2018-08-18T11:06:37.130Z,101689.77
2018-08-18T11:11:40.162Z,101682.36
2018-08-18T11:16:44.433Z,101691.05
2018-08-18T11:23:00.500Z,101692.25
2018-08-18T11:28:04.067Z,101681.64
2018-08-18T11:33:07.625Z,101680.47
2018-08-18T11:38:12.873Z,101681.67
2018-08-18T11:43:16.481Z,101685.98
2018-08-18T11:48:20.623Z,101682.94
2018-08-18T11:53:24.093Z,101675.04
2018-08-18T11:58:27.153Z,101677.13
2018-08-18T12:03:33.209Z,101665.45
2018-08-18T12:08:37.078Z,101668.58
2018-08-18T12:13:40.078Z,101659.17
2018-08-18T12:18:44.989Z,101663.11
2018-08-18T12:23:48.486Z,101655.08
2018-08-18T12:28:53.226Z,101644.90
2018-08-18T12:33:56.562Z,101647.55
2018-08-18T12:38:59.650Z,101643.33
2018-08-18T12:44:02.726Z,101638.16
2018-08-18T12:49:06.125Z,101646.67
2018-08-18T12:54:09.218Z,101638.61
2018-08-18T12:59:13.102Z,101632.59
2018-08-18T13:04:18.039Z,101623.45
2018-08-18T13:09:22.583Z,101612.05
2018-08-18T13:14:28.768Z,101609.19
2018-08-18T13:19:33.334Z,101599.36
2018-08-18T13:24:36.392Z,101601.78
2018-08-18T13:29:39.426Z,101588.84
2018-08-18T13:34:42.518Z,101594.83
2018-08-18T13:39:45.542Z,101593.45
2018-08-18T13:44:48.698Z,101582.78
2018-08-18T13:49:57.883Z,101584.30
2018-08-18T13:55:01.363Z,101583.10
2018-08-18T14:00:09.086Z,101587.18
2018-08-18T14:05:19.454Z,101584.59
2018-08-18T14:10:22.519Z,101578.96
2018-08-18T14:15:25.559Z,101574.36
2018-08-18T14:20:30.157Z,101570.31
2018-08-18T14:25:33.261Z,101566.66
2018-08-18T14:30:36.287Z,101569.14
2018-08-18T14:35:39.329Z,101568.50
2018-08-18T14:40:42.450Z,101573.65
2018-08-18T14:45:45.510Z,101563.36
2018-08-18T14:50:48.634Z,101564.98
2018-08-18T14:55:51.910Z,101567.91
2018-08-18T15:01:12.290Z,101578.82
2018-08-18T15:06:15.286Z,101571.72
2018-08-18T15:11:18.326Z,101562.20
2018-08-18T15:16:21.317Z,101569.75
2018-08-18T15:21:24.342Z,101566.81
2018-08-18T15:26:27.374Z,101570.32
2018-08-18T15:31:30.419Z,101569.52
2018-08-18T15:36:33.510Z,101577.39
2018-08-18T15:41:36.614Z,101569.67
2018-08-18T15:46:39.691Z,101562.77
2018-08-18T15:51:42.730Z,101562.86
2018-08-18T15:56:45.782Z,101563.03
2018-08-18T16:01:48.863Z,101565.98
2018-08-18T16:06:51.905Z,101562.81
2018-08-18T16:11:54.971Z,101559.54
2018-08-18T16:17:00.534Z,101552.19
2018-08-18T16:22:04.645Z,101561.91
2018-08-18T16:27:07.998Z,101556.75
2018-08-18T16:32:19.953Z,101565.95
2018-08-18T16:37:23.659Z,101564.45
2018-08-18T16:42:26.785Z,101567.78
2018-08-18T16:47:32.022Z,101561.56
2018-08-18T16:52:35.086Z,101558.91
2018-08-18T16:57:38.150Z,101561.16
2018-08-18T17:02:41.615Z,101562.22
2018-08-18T17:07:44.696Z,101561.23
2018-08-18T17:12:47.819Z,101570.24
2018-08-18T17:17:50.902Z,101569.63
2018-08-18T17:22:53.973Z,101567.99
2018-08-18T17:27:57.050Z,101570.72
2018-08-18T17:33:00.216Z,101578.47
2018-08-18T17:38:03.411Z,101584.42
2018-08-18T17:43:06.566Z,101582.00
2018-08-18T17:48:09.742Z,101591.62
2018-08-18T17:53:12.846Z,101591.47
2018-08-18T17:58:15.943Z,101592.06
2018-08-18T18:03:19.090Z,101585.55
2018-08-18T18:08:22.329Z,101588.20
2018-08-18T18:13:26.626Z,101598.67
2018-08-18T18:18:35.654Z,101599.07
2018-08-18T18:23:38.785Z,101605.01
2018-08-18T18:28:41.989Z,101609.33
2018-08-18T18:33:49.633Z,101614.00
2018-08-18T18:38:55.895Z,101616.50
2018-08-18T18:44:01.976Z,101618.75
2018-08-18T18:49:23.364Z,101624.78
2018-08-18T18:54:26.532Z,101626.77
2018-08-18T18:59:29.921Z,101639.91
2018-08-18T19:04:33.251Z,101649.52
2018-08-18T19:09:36.442Z,101641.84
2018-08-18T19:14:39.605Z,101646.81
2018-08-18T19:19:42.626Z,101650.45
2018-08-18T19:24:45.897Z,101660.97
2018-08-18T19:29:48.912Z,101658.28
2018-08-18T19:34:52.066Z,101661.77
2018-08-18T19:39:55.269Z,101664.92
2018-08-18T19:44:58.394Z,101675.20
2018-08-18T19:50:01.550Z,101668.39
2018-08-18T19:55:05.042Z,101669.58
2018-08-18T20:00:18.429Z,101673.67
2018-08-18T20:05:22.277Z,101672.53
2018-08-18T20:10:25.327Z,101670.61
2018-08-18T20:15:28.317Z,101676.54
2018-08-18T20:20:31.379Z,101672.12
2018-08-18T20:25:34.424Z,101672.00
2018-08-18T20:30:37.505Z,101668.04
2018-08-18T20:35:40.533Z,101671.81
2018-08-18T20:40:43.558Z,101674.03
2018-08-18T20:45:48.391Z,101672.69
2018-08-18T20:50:51.638Z,101678.58
2018-08-18T20:55:58.315Z,101689.02
2018-08-18T21:01:01.875Z,101690.72
2018-08-18T21:06:06.113Z,101693.28
2018-08-18T21:11:09.167Z,101696.74
2018-08-18T21:16:12.222Z,101696.48
2018-08-18T21:21:33.530Z,101702.81
2018-08-18T21:26:36.575Z,101703.81
2018-08-18T21:31:39.875Z,101716.09
2018-08-18T21:36:43.024Z,101717.08
2018-08-18T21:41:46.928Z,101711.87
2018-08-18T21:46:50.050Z,101715.42
2018-08-18T21:51:53.208Z,101718.06
2018-08-18T21:56:56.271Z,101729.91
2018-08-18T22:02:00.513Z,101733.24
2018-08-18T22:07:03.571Z,101736.30
2018-08-18T22:12:06.633Z,101745.13
2018-08-18T22:17:09.753Z,101739.53
2018-08-18T22:22:17.351Z,101748.64
2018-08-18T22:27:20.422Z,101749.41
2018-08-18T22:32:23.450Z,101748.63
2018-08-18T22:37:26.452Z,101746.34
2018-08-18T22:42:29.478Z,101751.30
2018-08-18T22:47:32.626Z,101745.63
2018-08-18T22:52:35.703Z,101746.84
2018-08-18T22:57:41.166Z,101745.61
2018-08-18T23:02:44.577Z,101753.31
2018-08-18T23:07:50.971Z,101745.89
2018-08-18T23:12:54.002Z,101739.44
2018-08-18T23:17:57.079Z,101745.78
2018-08-18T23:23:01.075Z,101743.09
2018-08-18T23:28:04.114Z,101744.52
2018-08-18T23:33:08.863Z,101741.28
2018-08-18T23:38:11.908Z,101735.56
2018-08-18T23:43:14.939Z,101731.41
2018-08-18T23:48:17.935Z,101733.77
2018-08-18T23:53:20.930Z,101732.53
2018-08-18T23:58:23.970Z,101739.36
